Time;durP1;ratioP1;P1;durP2;ratioP2;P2;SDS_P1;SDS_P2;PMS_P1;PMS_P2;Temp;Humidity;BMP_temperature;BMP_pressure;BME280_temperature;BME280_humidity;BME280_pressure;Samples;Min_cycle;Max_cycle;Signal;HPM_P1;HPM_P2
2022/12/05 00:01:13;;;;;;;;;;;;;;;3.69;78.47;101816.50;5103218;28;19928;-54
2022/12/05 00:03:38;;;;;;;;;;;;;;;3.67;78.56;101813.91;5106169;28;20550;-53
2022/12/05 00:06:03;;;;;;;;;;;;;;;3.71;78.74;101817.34;5108030;28;19916;-52
2022/12/05 00:08:29;;;;;;;;;;;;;;;3.64;78.99;101808.72;5093309;28;19924;-52
2022/12/05 00:10:54;;;;;;;;;;;;;;;3.65;78.99;101808.72;5101005;28;20938;-54
2022/12/05 00:13:19;;;;;;;;;;;;;;;3.69;78.58;101811.31;5097727;28;19923;-52
2022/12/05 00:15:44;;;;;;;;;;;;;;;3.69;78.65;101808.72;5100093;28;19928;-54
2022/12/05 00:18:10;;;;;;;;;;;;;;;3.68;78.70;101807.81;5097580;28;19931;-53
2022/12/05 00:20:35;;;;;;;;;;;;;;;3.71;78.64;101809.53;5106343;28;19919;-52
2022/12/05 00:23:01;;;;;;;;;;;;;;;3.68;78.77;101810.44;5091325;28;19923;-52
2022/12/05 00:25:26;;;;;;;;;;;;;;;3.68;78.84;101806.97;5105406;28;19927;-52
2022/12/05 00:27:52;;;;;;;;;;;;;;;3.63;78.91;101807.88;5103814;28;19911;-53
2022/12/05 00:30:17;;;;;;;;;;;;;;;3.66;78.84;101801.78;5104961;28;20473;-52
2022/12/05 00:32:42;;;;;;;;;;;;;;;3.64;78.80;101796.59;5102975;28;19916;-52
2022/12/05 00:35:08;;;;;;;;;;;;;;;3.65;78.57;101795.72;5099600;28;19920;-52
2022/12/05 00:37:33;;;;;;;;;;;;;;;3.69;78.54;101795.69;5107401;28;19929;-54
2022/12/05 00:39:58;;;;;;;;;;;;;;;3.70;78.99;101800.03;5111022;28;19999;-53
2022/12/05 00:42:24;;;;;;;;;;;;;;;3.65;78.58;101793.13;5092554;28;19927;-54
2022/12/05 00:44:49;;;;;;;;;;;;;;;3.62;78.68;101793.16;5106611;27;19986;-53
2022/12/05 00:47:15;;;;;;;;;;;;;;;3.63;78.85;101796.63;5085923;27;19947;-53
2022/12/05 00:49:40;;;;;;;;;;;;;;;3.62;78.91;101785.34;5108177;28;19920;-52
2022/12/05 00:52:05;;;;;;;;;;;;;;;3.64;78.76;101794.00;5109363;27;19927;-55
2022/12/05 00:54:31;;;;;;;;;;;;;;;3.66;78.62;101792.25;5109313;27;19961;-52
2022/12/05 00:56:56;;;;;;;;;;;;;;;3.57;79.30;101792.31;5105797;28;20309;-53
2022/12/05 00:59:22;;;;;;;;;;;;;;;3.58;79.29;101799.25;5111299;28;19916;-53
2022/12/05 01:01:48;;;;;;;;;;;;;;;3.53;79.41;101788.06;5111185;28;19912;-52
2022/12/05 01:04:21;;;;;;;;;;;;;;;3.56;79.21;101785.41;5102328;28;20043;-52
2022/12/05 01:06:47;;;;;;;;;;;;;;;3.59;79.25;101789.72;5108595;27;19912;-52
2022/12/05 01:09:14;;;;;;;;;;;;;;;3.59;79.11;101789.72;5111076;27;19926;-53
2022/12/05 01:11:39;;;;;;;;;;;;;;;3.61;78.92;101788.81;5096728;28;20006;-52
2022/12/05 01:14:05;;;;;;;;;;;;;;;3.63;79.06;101781.00;5108508;27;19998;-53
2022/12/05 01:16:32;;;;;;;;;;;;;;;3.61;79.09;101783.63;5107457;27;19932;-54
2022/12/05 01:18:58;;;;;;;;;;;;;;;3.62;79.00;101785.34;5107276;28;20282;-52
2022/12/05 01:21:23;;;;;;;;;;;;;;;3.65;79.07;101784.44;5110330;28;20381;-52
2022/12/05 01:23:49;;;;;;;;;;;;;;;3.66;79.01;101780.94;5110678;27;19916;-52
2022/12/05 01:26:15;;;;;;;;;;;;;;;3.65;78.93;101774.03;5092495;27;19990;-53
2022/12/05 01:28:40;;;;;;;;;;;;;;;3.65;79.01;101779.22;5111822;27;20425;-53
2022/12/05 01:31:07;;;;;;;;;;;;;;;3.64;78.88;101783.59;5108257;28;19955;-54
2022/12/05 01:33:32;;;;;;;;;;;;;;;3.60;78.87;101775.84;5108738;28;19918;-52
2022/12/05 01:35:58;;;;;;;;;;;;;;;3.60;79.08;101770.63;5109051;28;19924;-52
2022/12/05 01:38:23;;;;;;;;;;;;;;;3.58;79.10;101770.63;5104494;28;19924;-53
2022/12/05 01:40:48;;;;;;;;;;;;;;;3.59;79.12;101766.31;5100338;27;19927;-52
2022/12/05 01:43:15;;;;;;;;;;;;;;;3.59;79.07;101764.53;5107394;27;19967;-52
2022/12/05 01:45:41;;;;;;;;;;;;;;;3.62;78.94;101768.88;5109896;28;20010;-52
2022/12/05 01:48:11;;;;;;;;;;;;;;;3.64;78.72;101773.16;5108964;28;19916;-52
2022/12/05 01:50:36;;;;;;;;;;;;;;;3.66;78.66;101783.56;5107614;28;19919;-53
2022/12/05 01:53:02;;;;;;;;;;;;;;;3.70;78.42;101784.41;5104349;27;19916;-52
2022/12/05 01:55:28;;;;;;;;;;;;;;;3.72;78.63;101785.22;5084420;28;19953;-53
2022/12/05 01:57:55;;;;;;;;;;;;;;;3.72;78.55;101785.22;5108402;28;19941;-52
2022/12/05 02:00:20;;;;;;;;;;;;;;;3.69;78.52;101783.53;5109177;28;19924;-52
2022/12/05 02:02:54;;;;;;;;;;;;;;;3.69;78.66;101780.06;5108401;28;19924;-52
2022/12/05 02:05:30;;;;;;;;;;;;;;;3.69;78.52;101780.06;5107425;27;20374;-52
2022/12/05 02:07:56;;;;;;;;;;;;;;;3.66;78.75;101781.81;5107783;28;20007;-52
2022/12/05 02:10:22;;;;;;;;;;;;;;;3.66;78.54;101779.22;5108059;27;19916;-54
2022/12/05 02:12:48;;;;;;;;;;;;;;;3.65;78.45;101779.22;5109816;28;19961;-53
2022/12/05 02:15:24;;;;;;;;;;;;;;;3.68;78.72;101783.56;5107645;28;20408;-52
2022/12/05 02:17:56;;;;;;;;;;;;;;;3.66;78.56;101779.22;5108121;28;20367;-53
2022/12/05 02:20:30;;;;;;;;;;;;;;;3.68;78.51;101774.00;5107176;28;19915;-54
2022/12/05 02:22:55;;;;;;;;;;;;;;;3.72;78.64;101775.69;5104337;27;19924;-52
2022/12/05 02:25:39;;;;;;;;;;;;;;;3.70;78.62;101768.78;5108512;27;19922;-53
2022/12/05 02:28:23;;;;;;;;;;;;;;;3.69;78.68;101775.72;5107338;28;19930;-52
2022/12/05 02:30:53;;;;;;;;;;;;;;;3.69;78.71;101774.88;5105418;27;20450;-54
2022/12/05 02:33:30;;;;;;;;;;;;;;;3.66;78.76;101775.75;5101767;27;20679;-52
2022/12/05 02:36:22;;;;;;;;;;;;;;;3.66;78.77;101773.13;5104171;28;19916;-53
2022/12/05 02:38:51;;;;;;;;;;;;;;;3.69;78.31;101769.66;5103850;27;19916;-53
2022/12/05 02:41:25;;;;;;;;;;;;;;;3.69;78.43;101770.50;5107180;27;19947;-52
2022/12/05 02:43:54;;;;;;;;;;;;;;;3.70;78.51;101768.78;5106103;27;19915;-53
2022/12/05 02:46:21;;;;;;;;;;;;;;;3.71;78.45;101771.34;5094482;28;19920;-52
2022/12/05 02:48:49;;;;;;;;;;;;;;;3.70;78.34;101776.59;5105173;28;19912;-52
2022/12/05 02:51:17;;;;;;;;;;;;;;;3.68;78.61;101771.38;5095492;28;20382;-53
2022/12/05 02:53:43;;;;;;;;;;;;;;;3.66;78.78;101765.34;5101324;28;19922;-54
2022/12/05 02:56:09;;;;;;;;;;;;;;;3.65;78.83;101761.00;5101169;28;19924;-52
2022/12/05 02:58:37;;;;;;;;;;;;;;;3.65;78.61;101771.41;5101361;27;19951;-52
2022/12/05 03:01:03;;;;;;;;;;;;;;;3.62;78.78;101774.94;5104168;28;19918;-52
2022/12/05 03:03:29;;;;;;;;;;;;;;;3.62;78.85;101767.13;5107471;27;19915;-52
2022/12/05 03:06:07;;;;;;;;;;;;;;;3.60;78.62;101766.28;5105556;28;19920;-52
2022/12/05 03:08:41;;;;;;;;;;;;;;;3.64;78.87;101774.91;5106344;28;20603;-52
2022/12/05 03:11:07;;;;;;;;;;;;;;;3.64;78.82;101767.09;5107365;28;20310;-52
2022/12/05 03:13:53;;;;;;;;;;;;;;;3.65;78.62;101761.00;5105274;28;20359;-52
2022/12/05 03:16:24;;;;;;;;;;;;;;;3.64;78.80;101767.09;5106859;28;19964;-52
2022/12/05 03:18:55;;;;;;;;;;;;;;;3.65;78.74;101767.09;5107231;28;20331;-52
2022/12/05 03:21:27;;;;;;;;;;;;;;;3.66;78.64;101768.81;5099704;28;19924;-52
2022/12/05 03:23:55;;;;;;;;;;;;;;;3.69;78.77;101769.66;5104418;28;19994;-52
2022/12/05 03:26:36;;;;;;;;;;;;;;;3.68;78.55;101766.19;5087989;28;19923;-54
2022/12/05 03:29:10;;;;;;;;;;;;;;;3.71;78.44;101767.88;5107842;28;20375;-51
2022/12/05 03:32:04;;;;;;;;;;;;;;;3.68;78.67;101760.13;5096199;28;20017;-52
2022/12/05 03:34:40;;;;;;;;;;;;;;;3.71;78.59;101758.34;5084473;28;19920;-51
2022/12/05 03:37:09;;;;;;;;;;;;;;;3.67;78.44;101764.44;5099922;28;19928;-53
2022/12/05 03:39:38;;;;;;;;;;;;;;;3.67;78.71;101759.25;5102897;28;19950;-53
2022/12/05 03:42:06;;;;;;;;;;;;;;;3.68;78.50;101762.72;5101717;28;19916;-52
2022/12/05 03:44:43;;;;;;;;;;;;;;;3.69;78.60;101767.91;5108133;28;19998;-53
2022/12/05 03:47:14;;;;;;;;;;;;;;;3.65;78.65;101761.88;5105064;28;19926;-52
2022/12/05 03:49:42;;;;;;;;;;;;;;;3.63;78.91;101765.41;5104499;28;19912;-53
2022/12/05 03:52:16;;;;;;;;;;;;;;;3.65;78.62;101763.59;5102415;28;19923;-52
2022/12/05 03:54:46;;;;;;;;;;;;;;;3.65;78.71;101761.00;5104492;28;19920;-53
2022/12/05 03:57:18;;;;;;;;;;;;;;;3.67;78.58;101761.84;5100970;28;19923;-52
2022/12/05 03:59:46;;;;;;;;;;;;;;;3.69;78.71;101764.44;5106412;28;19912;-53
2022/12/05 04:02:29;;;;;;;;;;;;;;;3.70;78.43;101754.00;5107274;28;20006;-53
2022/12/05 04:04:58;;;;;;;;;;;;;;;3.72;78.66;101754.84;5079473;28;19934;-52
2022/12/05 04:07:24;;;;;;;;;;;;;;;3.75;78.32;101748.75;5103974;28;20461;-53
2022/12/05 04:09:57;;;;;;;;;;;;;;;3.77;78.21;101752.19;5106384;28;19916;-52
2022/12/05 04:12:26;;;;;;;;;;;;;;;3.77;78.18;101745.25;5110107;28;19924;-53
2022/12/05 04:14:55;;;;;;;;;;;;;;;3.74;78.32;101754.81;5107896;28;20441;-52
2022/12/05 04:17:35;;;;;;;;;;;;;;;3.74;78.44;101747.00;5110590;28;20976;-52
2022/12/05 04:22:50;;;;;;;;;;;;;;;3.79;78.10;101743.47;5109461;27;19923;-52
2022/12/05 04:25:34;;;;;;;;;;;;;;;3.83;77.87;101744.31;5109812;27;19924;-52
2022/12/05 04:28:18;;;;;;;;;;;;;;;3.79;77.95;101748.66;5113557;28;19935;-52
2022/12/05 04:30:56;;;;;;;;;;;;;;;3.81;78.21;101738.25;5113786;28;19980;-52
2022/12/05 04:33:32;;;;;;;;;;;;;;;3.81;78.01;101738.25;5113506;28;19916;-53
2022/12/05 04:36:11;;;;;;;;;;;;;;;3.80;77.72;101739.13;5110180;27;19923;-52
2022/12/05 04:38:46;;;;;;;;;;;;;;;3.80;77.83;101741.75;5112577;28;19912;-52
2022/12/05 04:41:14;;;;;;;;;;;;;;;3.78;77.86;101744.34;5110181;28;20290;-52
2022/12/05 04:43:40;;;;;;;;;;;;;;;3.78;77.94;101743.50;5112739;28;19912;-52
2022/12/05 04:46:08;;;;;;;;;;;;;;;3.80;77.86;101736.53;5112388;28;19947;-52
2022/12/05 04:48:36;;;;;;;;;;;;;;;3.78;78.28;101733.09;5103706;28;19923;-52
2022/12/05 04:51:03;;;;;;;;;;;;;;;3.80;78.14;101737.38;5104744;28;19920;-52
2022/12/05 04:53:30;;;;;;;;;;;;;;;3.81;77.95;101744.31;5111185;28;19920;-52
2022/12/05 04:55:57;;;;;;;;;;;;;;;3.83;77.88;101743.44;5097430;28;19920;-52
2022/12/05 04:58:24;;;;;;;;;;;;;;;3.79;78.15;101737.41;5111193;28;19928;-52
2022/12/05 05:00:56;;;;;;;;;;;;;;;3.79;78.08;101740.00;5112088;28;19915;-53
2022/12/05 05:03:27;;;;;;;;;;;;;;;3.81;77.90;101733.03;5106938;28;20605;-54
2022/12/05 05:05:54;;;;;;;;;;;;;;;3.83;77.59;101741.69;5111319;27;19931;-52
2022/12/05 05:08:27;;;;;;;;;;;;;;;3.80;77.89;101742.59;5109524;28;20019;-52
2022/12/05 05:11:02;;;;;;;;;;;;;;;3.80;77.67;101739.13;5103688;28;19924;-52
2022/12/05 05:13:27;;;;;;;;;;;;;;;3.77;78.04;101737.44;5105126;27;20314;-52
2022/12/05 05:15:52;;;;;;;;;;;;;;;3.79;77.68;101737.41;5101171;28;20545;-53
2022/12/05 05:18:18;;;;;;;;;;;;;;;3.79;78.05;101740.84;5101881;27;19931;-53
2022/12/05 05:20:43;;;;;;;;;;;;;;;3.82;77.95;101732.16;5103944;27;20396;-52
2022/12/05 05:23:08;;;;;;;;;;;;;;;3.85;77.96;101737.34;5088326;28;19923;-52
2022/12/05 05:25:34;;;;;;;;;;;;;;;3.86;77.62;101736.44;5103743;28;19923;-53
2022/12/05 05:27:59;;;;;;;;;;;;;;;3.89;77.72;101739.00;5099062;27;19950;-52
2022/12/05 05:30:24;;;;;;;;;;;;;;;3.90;77.68;101739.88;5104290;27;20341;-52
2022/12/05 05:32:50;;;;;;;;;;;;;;;3.93;77.67;101737.22;5109665;27;19927;-53
2022/12/05 05:35:15;;;;;;;;;;;;;;;3.92;77.31;101738.13;5112833;27;20400;-52
2022/12/05 05:37:41;;;;;;;;;;;;;;;3.90;77.48;101743.31;5109375;27;20383;-51
2022/12/05 05:40:07;;;;;;;;;;;;;;;3.90;77.67;101742.47;5101683;28;20015;-52
2022/12/05 05:42:33;;;;;;;;;;;;;;;3.89;77.68;101751.16;5108987;28;19912;-51
2022/12/05 05:44:58;;;;;;;;;;;;;;;3.90;77.43;101743.31;5110830;28;19969;-55
2022/12/05 05:47:23;;;;;;;;;;;;;;;3.92;77.54;101751.13;5109230;28;19977;-52
2022/12/05 05:49:49;;;;;;;;;;;;;;;3.91;77.71;101744.19;5105912;28;19923;-53
2022/12/05 05:52:14;;;;;;;;;;;;;;;3.90;77.77;101740.72;5103478;27;19961;-52
2022/12/05 05:54:40;;;;;;;;;;;;;;;3.90;77.74;101751.13;5108012;27;19924;-51
2022/12/05 05:57:05;;;;;;;;;;;;;;;3.91;77.46;101737.22;5099900;28;20494;-51
2022/12/05 05:59:30;;;;;;;;;;;;;;;3.91;77.54;101739.84;5118218;27;19915;-51
2022/12/05 06:01:56;;;;;;;;;;;;;;;3.90;77.53;101738.13;5111331;28;19961;-51
2022/12/05 06:04:21;;;;;;;;;;;;;;;3.81;77.86;101740.84;5105368;27;20379;-52
2022/12/05 06:06:46;;;;;;;;;;;;;;;3.82;77.87;101737.38;5107999;28;19951;-52
2022/12/05 06:09:11;;;;;;;;;;;;;;;3.85;77.93;101742.53;5108116;28;19972;-52
2022/12/05 06:11:37;;;;;;;;;;;;;;;3.85;77.85;101750.34;5098118;28;20371;-52
2022/12/05 06:14:02;;;;;;;;;;;;;;;3.86;77.98;101749.44;5110250;27;19919;-51
2022/12/05 06:16:29;;;;;;;;;;;;;;;3.91;77.78;101746.81;5109489;27;19923;-51
2022/12/05 06:18:54;;;;;;;;;;;;;;;3.91;77.86;101747.66;5100581;27;19915;-52
2022/12/05 06:21:20;;;;;;;;;;;;;;;3.87;77.80;101756.38;5110810;27;19916;-52
2022/12/05 06:23:46;;;;;;;;;;;;;;;3.87;77.76;101751.16;5108963;28;19916;-52
2022/12/05 06:26:13;;;;;;;;;;;;;;;3.90;77.71;101760.72;5099865;28;19931;-57
2022/12/05 06:28:38;;;;;;;;;;;;;;;3.89;77.62;101748.56;5105174;27;19919;-51
2022/12/05 06:31:12;;;;;;;;;;;;;;;3.87;77.61;101751.16;5109890;27;19919;-51
2022/12/05 06:33:38;;;;;;;;;;;;;;;3.86;77.52;101749.44;5111741;27;20354;-52
2022/12/05 06:36:07;;;;;;;;;;;;;;;3.87;77.81;101756.38;5103485;27;20199;-52
2022/12/05 06:38:32;;;;;;;;;;;;;;;3.85;77.77;101758.16;5101454;28;19924;-51
2022/12/05 06:40:58;;;;;;;;;;;;;;;3.86;77.73;101756.41;5093928;28;19916;-51
2022/12/05 06:43:23;;;;;;;;;;;;;;;3.88;77.92;101763.31;5112034;28;19930;-52
2022/12/05 06:45:48;;;;;;;;;;;;;;;3.86;77.84;101759.84;5108948;28;20303;-52
2022/12/05 06:48:14;;;;;;;;;;;;;;;3.86;78.08;101754.66;5116362;27;19916;-52
2022/12/05 06:50:46;;;;;;;;;;;;;;;3.85;77.96;101759.91;5109960;28;20299;-52
2022/12/05 06:53:11;;;;;;;;;;;;;;;3.85;77.98;101765.97;5113137;27;19924;-51
2022/12/05 06:55:36;;;;;;;;;;;;;;;3.84;77.53;101764.25;5109788;27;19927;-53
2022/12/05 06:58:02;;;;;;;;;;;;;;;3.85;77.85;101775.53;5109040;27;20694;-53
2022/12/05 07:03:11;;;;;;;;;;;;;;;3.85;78.11;101765.97;5114024;27;19931;-52
2022/12/05 07:05:36;;;;;;;;;;;;;;;3.84;77.86;101777.28;5111579;28;19916;-51
2022/12/05 07:08:01;;;;;;;;;;;;;;;3.85;78.11;101779.00;5111763;28;19915;-52
2022/12/05 07:10:27;;;;;;;;;;;;;;;3.83;77.88;101777.28;5094834;28;20294;-51
2022/12/05 07:12:52;;;;;;;;;;;;;;;3.84;77.79;101779.00;5113642;27;20614;-52
2022/12/05 07:15:17;;;;;;;;;;;;;;;3.83;77.78;101785.09;5106793;28;19970;-52
2022/12/05 07:17:43;;;;;;;;;;;;;;;3.81;78.02;101780.75;5110466;27;19920;-52
2022/12/05 07:20:09;;;;;;;;;;;;;;;3.83;78.17;101785.97;5103147;27;19955;-52
2022/12/05 07:22:35;;;;;;;;;;;;;;;3.85;78.15;101792.03;5091019;28;19920;-52
2022/12/05 07:25:00;;;;;;;;;;;;;;;3.86;78.24;101785.91;5100751;27;19924;-52
2022/12/05 07:27:26;;;;;;;;;;;;;;;3.87;78.32;101790.22;5092643;28;19927;-53
2022/12/05 07:29:51;;;;;;;;;;;;;;;3.87;78.24;101789.38;5107410;27;20365;-52
2022/12/05 07:32:16;;;;;;;;;;;;;;;3.86;77.82;101788.50;5099187;28;20402;-52
2022/12/05 07:34:42;;;;;;;;;;;;;;;3.86;78.21;101793.72;5103042;27;19916;-52
2022/12/05 07:37:07;;;;;;;;;;;;;;;3.85;78.27;101783.31;5104693;28;19926;-52
2022/12/05 07:39:32;;;;;;;;;;;;;;;3.83;78.38;101782.47;5106336;28;19976;-52
2022/12/05 07:41:58;;;;;;;;;;;;;;;3.77;78.33;101786.03;5105854;28;19926;-52
2022/12/05 07:44:23;;;;;;;;;;;;;;;3.80;78.30;101786.84;5102720;27;19920;-52
2022/12/05 07:46:48;;;;;;;;;;;;;;;3.83;78.06;101785.09;5102699;27;19957;-52
2022/12/05 07:49:16;;;;;;;;;;;;;;;3.83;78.32;101780.75;5109538;28;19926;-52
2022/12/05 07:51:42;;;;;;;;;;;;;;;3.86;78.48;101779.84;5100715;28;19920;-52
2022/12/05 07:54:07;;;;;;;;;;;;;;;3.87;78.45;101785.03;5114083;28;19911;-51
2022/12/05 07:56:32;;;;;;;;;;;;;;;3.87;77.92;101784.19;5104638;28;19920;-52
2022/12/05 07:58:58;;;;;;;;;;;;;;;3.86;77.98;101779.84;5110813;28;19920;-52
2022/12/05 08:01:24;;;;;;;;;;;;;;;3.88;78.32;101784.16;5110209;28;20006;-52
2022/12/05 08:03:51;;;;;;;;;;;;;;;3.88;78.22;101778.94;5103194;28;20626;-53
2022/12/05 08:06:18;;;;;;;;;;;;;;;3.90;78.25;101784.16;5101798;28;19927;-52
2022/12/05 08:08:43;;;;;;;;;;;;;;;3.88;78.08;101773.72;5112662;28;19975;-53
2022/12/05 08:11:11;;;;;;;;;;;;;;;3.89;78.11;101779.81;5109579;28;20272;-53
2022/12/05 08:13:36;;;;;;;;;;;;;;;3.89;78.30;101783.25;5111680;28;19923;-52
2022/12/05 08:16:03;;;;;;;;;;;;;;;3.91;78.32;101786.72;5109234;28;19916;-53
2022/12/05 08:18:29;;;;;;;;;;;;;;;3.91;78.31;101786.72;5108153;28;19916;-52
2022/12/05 08:20:54;;;;;;;;;;;;;;;3.92;78.22;101788.44;5106578;28;20014;-52
2022/12/05 08:23:19;;;;;;;;;;;;;;;3.92;78.24;101783.22;5095125;28;19923;-52
2022/12/05 08:25:45;;;;;;;;;;;;;;;3.91;77.92;101776.28;5110797;28;19919;-52
2022/12/05 08:28:10;;;;;;;;;;;;;;;3.94;78.18;101780.59;5104118;28;19916;-52
2022/12/05 08:30:35;;;;;;;;;;;;;;;3.95;78.05;101778.00;5109322;28;20379;-53
2022/12/05 08:33:01;;;;;;;;;;;;;;;3.94;77.84;101776.25;5120673;28;19920;-52
2022/12/05 08:35:26;;;;;;;;;;;;;;;3.96;77.66;101771.91;5116606;28;19964;-52
2022/12/05 08:37:52;;;;;;;;;;;;;;;3.95;78.02;101777.09;5103540;28;19923;-52
2022/12/05 08:40:17;;;;;;;;;;;;;;;4.00;77.65;101771.88;5102585;28;19931;-52
2022/12/05 08:42:42;;;;;;;;;;;;;;;4.00;77.87;101779.69;5095972;28;19938;-52
2022/12/05 08:45:08;;;;;;;;;;;;;;;4.02;77.73;101776.16;5107189;28;20387;-52
2022/12/05 08:47:33;;;;;;;;;;;;;;;4.03;77.82;101780.50;5103524;28;20559;-52
2022/12/05 08:49:58;;;;;;;;;;;;;;;4.06;77.48;101784.78;5106645;28;20006;-51
2022/12/05 08:52:24;;;;;;;;;;;;;;;4.09;77.39;101784.75;5105677;28;19916;-52
2022/12/05 08:54:49;;;;;;;;;;;;;;;4.08;77.16;101789.06;5106265;28;19923;-52
2022/12/05 08:57:14;;;;;;;;;;;;;;;4.10;77.32;101791.69;5109542;28;20072;-52
2022/12/05 08:59:40;;;;;;;;;;;;;;;4.08;77.18;101788.22;5109863;28;20024;-52
2022/12/05 09:02:05;;;;;;;;;;;;;;;4.07;77.60;101790.00;5110199;28;19926;-51
2022/12/05 09:04:30;;;;;;;;;;;;;;;4.06;77.50;101784.78;5105820;27;20015;-52
2022/12/05 09:06:56;;;;;;;;;;;;;;;4.04;77.26;101786.53;5109991;28;20420;-52
2022/12/05 09:09:21;;;;;;;;;;;;;;;4.04;77.72;101786.53;5110575;28;20771;-52
2022/12/05 09:11:49;;;;;;;;;;;;;;;4.03;77.59;101785.69;5120210;27;19911;-53
2022/12/05 09:14:15;;;;;;;;;;;;;;;4.08;77.68;101783.03;5110985;27;20575;-52
2022/12/05 09:16:42;;;;;;;;;;;;;;;4.11;77.65;101783.84;5110463;28;19916;-52
2022/12/05 09:19:12;;;;;;;;;;;;;;;4.07;77.40;101784.78;5108673;27;19978;-52
2022/12/05 09:21:37;;;;;;;;;;;;;;;4.10;77.86;101783.88;5113004;27;19920;-52
2022/12/05 09:24:03;;;;;;;;;;;;;;;4.10;77.62;101782.09;5111593;28;19969;-52
2022/12/05 09:26:29;;;;;;;;;;;;;;;4.11;77.54;101783.84;5110994;28;19916;-52
2022/12/05 09:28:54;;;;;;;;;;;;;;;4.11;77.75;101773.41;5109178;28;19919;-52
2022/12/05 09:31:21;;;;;;;;;;;;;;;4.13;77.71;101781.22;5107586;28;19924;-52
2022/12/05 09:33:47;;;;;;;;;;;;;;;4.15;77.55;101771.66;5098146;27;19923;-52
2022/12/05 09:36:17;;;;;;;;;;;;;;;4.13;77.42;101770.81;5111370;27;19915;-53
2022/12/05 09:38:42;;;;;;;;;;;;;;;4.15;77.46;101769.03;5109755;28;20484;-52
2022/12/05 09:42:08;;;;;;;;;;;;;;;4.20;77.52;101764.59;5110178;28;20015;-52
2022/12/05 09:44:23;;;;;;;;;;;;;;;4.22;77.48;101768.06;5097266;28;20029;-52
2022/12/05 09:46:49;;;;;;;;;;;;;;;4.23;77.40;101767.19;5112785;28;19957;-52
2022/12/05 09:49:14;;;;;;;;;;;;;;;4.23;77.42;101755.91;5100140;28;19919;-52
2022/12/05 09:51:43;;;;;;;;;;;;;;;4.18;77.41;101758.56;5103429;28;19939;-53
2022/12/05 09:54:09;;;;;;;;;;;;;;;4.20;77.38;101751.59;5108729;28;19915;-52
2022/12/05 09:56:35;;;;;;;;;;;;;;;4.20;77.31;101751.59;5107582;28;19916;-52
2022/12/05 09:59:01;;;;;;;;;;;;;;;4.22;77.10;101743.75;5109371;28;20023;-51
2022/12/05 10:01:40;;;;;;;;;;;;;;;4.22;76.86;101749.81;5101863;28;20002;-52
2022/12/05 10:04:05;;;;;;;;;;;;;;;4.22;77.62;101752.41;5104872;28;19926;-52
2022/12/05 10:06:37;;;;;;;;;;;;;;;4.23;77.33;101761.97;5108855;28;20014;-53
2022/12/05 10:09:17;;;;;;;;;;;;;;;4.25;77.66;101749.78;5098635;28;19915;-52
2022/12/05 10:11:51;;;;;;;;;;;;;;;4.27;77.67;101750.63;5109468;28;19915;-52
2022/12/05 10:14:29;;;;;;;;;;;;;;;4.25;77.53;101751.50;5106325;28;19953;-53
2022/12/05 10:16:57;;;;;;;;;;;;;;;4.29;77.32;101753.19;5109506;28;19988;-52
2022/12/05 10:19:33;;;;;;;;;;;;;;;4.32;77.40;101754.88;5099921;28;19928;-54
2022/12/05 10:22:03;;;;;;;;;;;;;;;4.34;77.16;101751.38;5100292;28;20010;-53
2022/12/05 10:24:31;;;;;;;;;;;;;;;4.35;77.37;101757.44;5097497;28;19947;-52
2022/12/05 10:27:01;;;;;;;;;;;;;;;4.35;77.50;101758.31;5105809;28;19970;-53
2022/12/05 10:29:43;;;;;;;;;;;;;;;4.34;77.07;101755.72;5102188;28;19959;-53
2022/12/05 10:32:18;;;;;;;;;;;;;;;4.32;76.96;101747.94;5108877;28;19918;-52
2022/12/05 10:34:44;;;;;;;;;;;;;;;4.31;77.48;101748.81;5104552;28;19915;-52
2022/12/05 10:37:14;;;;;;;;;;;;;;;4.34;77.45;101747.91;5109326;28;20286;-52
2022/12/05 10:39:39;;;;;;;;;;;;;;;4.37;77.35;101753.06;5110211;28;19924;-52
2022/12/05 10:42:05;;;;;;;;;;;;;;;4.36;77.21;101749.63;5104521;28;19961;-52
2022/12/05 10:44:31;;;;;;;;;;;;;;;4.36;76.76;101756.56;5109776;27;19919;-52
2022/12/05 10:46:56;;;;;;;;;;;;;;;4.33;77.52;101759.22;5093369;28;20003;-52
2022/12/05 10:49:22;;;;;;;;;;;;;;;4.31;77.69;101755.78;5101829;28;19923;-52
2022/12/05 10:51:48;;;;;;;;;;;;;;;4.32;77.61;101760.09;5111153;28;19916;-52
2022/12/05 10:54:19;;;;;;;;;;;;;;;4.34;77.50;101758.31;5110796;28;20007;-52
2022/12/05 10:56:46;;;;;;;;;;;;;;;4.32;77.37;101754.88;5101683;28;19923;-52
2022/12/05 10:59:14;;;;;;;;;;;;;;;4.35;77.52;101754.84;5102760;28;19967;-52
2022/12/05 11:01:43;;;;;;;;;;;;;;;4.35;77.52;101755.72;5105232;28;19922;-52
2022/12/05 11:04:17;;;;;;;;;;;;;;;4.35;77.60;101752.22;5108252;28;20343;-52
2022/12/05 11:06:49;;;;;;;;;;;;;;;4.36;77.71;101738.31;5106576;28;19920;-53
2022/12/05 11:09:19;;;;;;;;;;;;;;;4.31;77.52;101737.56;5106754;28;19931;-52
2022/12/05 11:11:56;;;;;;;;;;;;;;;4.30;77.99;101741.03;5108680;28;19916;-52
2022/12/05 11:14:24;;;;;;;;;;;;;;;4.29;77.62;101727.13;5107249;28;19951;-52
2022/12/05 11:16:53;;;;;;;;;;;;;;;4.31;77.73;101732.34;5101181;28;19915;-52
2022/12/05 11:19:18;;;;;;;;;;;;;;;4.31;78.20;101727.13;5107140;28;19919;-52
2022/12/05 11:21:43;;;;;;;;;;;;;;;4.31;77.74;101727.97;5109718;28;19912;-53
2022/12/05 11:24:29;;;;;;;;;;;;;;;4.35;77.70;101718.34;5109499;28;19920;-53
2022/12/05 11:26:56;;;;;;;;;;;;;;;4.40;77.82;101716.53;5101709;28;20335;-53
2022/12/05 11:29:35;;;;;;;;;;;;;;;4.40;77.44;101711.34;5106408;27;20429;-52
2022/12/05 11:32:01;;;;;;;;;;;;;;;4.40;77.26;101711.34;5099479;28;20002;-52
2022/12/05 11:34:30;;;;;;;;;;;;;;;4.39;77.31;101705.25;5104270;28;19916;-52
2022/12/05 11:36:59;;;;;;;;;;;;;;;4.38;77.47;101697.47;5104931;28;19912;-52
2022/12/05 11:39:24;;;;;;;;;;;;;;;4.40;77.40;101700.91;5108601;28;19982;-52
2022/12/05 11:41:56;;;;;;;;;;;;;;;4.38;77.19;101692.25;5102812;28;20375;-51
2022/12/05 11:44:24;;;;;;;;;;;;;;;4.40;77.11;101698.31;5105473;27;20366;-53
2022/12/05 11:47:09;;;;;;;;;;;;;;;4.37;77.49;101696.63;5104959;28;19916;-52
2022/12/05 11:49:54;;;;;;;;;;;;;;;4.39;77.15;101693.97;5107207;28;21179;-52
2022/12/05 11:52:22;;;;;;;;;;;;;;;4.38;77.22;101692.25;5100451;28;19991;-53
2022/12/05 11:54:47;;;;;;;;;;;;;;;4.38;77.20;101692.25;5106931;28;20575;-53
2022/12/05 11:57:31;;;;;;;;;;;;;;;4.39;77.48;101683.56;5108787;28;19970;-53
2022/12/05 12:00:15;;;;;;;;;;;;;;;4.35;77.41;101681.88;5108787;28;19941;-53
2022/12/05 12:02:55;;;;;;;;;;;;;;;4.33;77.55;101678.44;5105780;28;19915;-52
2022/12/05 12:05:43;;;;;;;;;;;;;;;4.32;77.83;101668.88;5096995;28;20438;-53
2022/12/05 12:08:27;;;;;;;;;;;;;;;4.35;77.67;101682.75;5109914;28;19947;-54
2022/12/05 12:11:02;;;;;;;;;;;;;;;4.38;77.61;101671.41;5107225;28;19951;-53
2022/12/05 12:13:42;;;;;;;;;;;;;;;4.40;77.31;101670.47;5101356;28;20260;-53
2022/12/05 12:16:10;;;;;;;;;;;;;;;4.39;77.33;101679.19;5099402;28;19923;-53
2022/12/05 12:18:48;;;;;;;;;;;;;;;4.38;77.41;101671.41;5097863;28;20299;-53
2022/12/05 12:21:17;;;;;;;;;;;;;;;4.37;77.83;101677.50;5105058;28;19932;-52
2022/12/05 12:24:00;;;;;;;;;;;;;;;4.35;77.73;101674.06;5105554;28;19924;-52
2022/12/05 12:26:37;;;;;;;;;;;;;;;4.37;77.64;101674.91;5109356;28;19926;-52
2022/12/05 12:29:06;;;;;;;;;;;;;;;4.37;77.61;101667.06;5078374;28;20327;-52
2022/12/05 12:31:40;;;;;;;;;;;;;;;4.38;77.88;101674.00;5100609;28;19916;-52
2022/12/05 12:34:24;;;;;;;;;;;;;;;4.35;78.07;101676.66;5121761;27;19925;-52
2022/12/05 12:37:12;;;;;;;;;;;;;;;4.34;78.21;101669.72;5107977;28;20330;-51
2022/12/05 12:39:47;;;;;;;;;;;;;;;4.29;77.98;101667.19;5107966;27;20272;-51
2022/12/05 12:42:51;;;;;;;;;;;;;;;4.34;78.24;101672.34;5103797;28;19919;-51
2022/12/05 12:45:34;;;;;;;;;;;;;;;4.34;78.09;101670.59;5045039;28;19917;-52
2022/12/05 12:48:09;;;;;;;;;;;;;;;4.35;78.35;101663.63;5048797;28;19913;-52
2022/12/05 12:50:37;;;;;;;;;;;;;;;4.35;78.07;101663.63;5089392;28;20427;-54
2022/12/05 12:53:08;;;;;;;;;;;;;;;4.35;78.42;101672.31;5113598;28;20019;-54
2022/12/05 12:56:07;;;;;;;;;;;;;;;4.36;78.30;101668.84;5106671;28;20459;-52
2022/12/05 12:58:45;;;;;;;;;;;;;;;4.38;78.36;101668.81;5076231;28;19947;-51
2022/12/05 13:01:20;;;;;;;;;;;;;;;4.38;78.38;101666.19;5112498;28;20327;-52
2022/12/05 13:03:52;;;;;;;;;;;;;;;4.37;78.38;101669.69;5111386;28;20378;-52